createdAt,value
2019-01-06T00:00:38.340Z,11.27
2019-01-06T00:06:01.556Z,8.60
2019-01-06T00:08:49.127Z,8.60
2019-01-06T00:11:36.741Z,8.27
2019-01-06T00:14:24.706Z,8.70
2019-01-06T00:17:12.208Z,8.50
2019-01-06T00:22:35.611Z,9.17
2019-01-06T00:25:23.280Z,8.43
2019-01-06T00:28:10.957Z,8.60
2019-01-06T00:30:58.647Z,9.10
2019-01-06T00:33:46.289Z,9.00
2019-01-06T00:36:33.947Z,9.07
2019-01-06T00:39:21.516Z,9.00
2019-01-06T00:44:44.779Z,9.60
2019-01-06T00:47:32.514Z,10.10
2019-01-06T00:50:20.087Z,9.30
2019-01-06T00:53:08.061Z,10.03
2019-01-06T00:55:55.667Z,10.20
2019-01-06T00:58:43.279Z,10.70
2019-01-06T01:01:30.871Z,10.17
2019-01-06T01:04:18.426Z,10.27
2019-01-06T01:07:06.107Z,9.80
2019-01-06T01:09:53.732Z,10.53
2019-01-06T01:12:41.372Z,9.57
2019-01-06T01:15:29.057Z,10.30
2019-01-06T01:18:16.710Z,9.77
2019-01-06T01:21:04.383Z,10.43
2019-01-06T01:23:52.044Z,10.10
2019-01-06T01:26:39.719Z,9.87
2019-01-06T01:32:16.645Z,10.43
2019-01-06T01:37:53.326Z,9.60
2019-01-06T01:40:41.119Z,10.67
2019-01-06T01:43:28.756Z,9.87
2019-01-06T01:51:30.827Z,10.23
2019-01-06T02:02:21.666Z,10.70
2019-01-06T02:05:09.620Z,10.30
2019-01-06T02:13:07.512Z,10.77
2019-01-06T02:18:44.155Z,11.23
2019-01-06T02:21:31.813Z,10.67
2019-01-06T02:24:19.434Z,10.60
2019-01-06T02:27:06.961Z,10.27
2019-01-06T02:32:30.119Z,11.40
2019-01-06T02:35:17.720Z,10.70
2019-01-06T02:38:05.397Z,11.43
2019-01-06T02:40:53.026Z,11.83
2019-01-06T02:43:40.924Z,11.63
2019-01-06T02:46:28.483Z,11.23
2019-01-06T02:49:16.189Z,11.10
2019-01-06T02:52:03.787Z,11.00
2019-01-06T02:54:51.445Z,11.40
2019-01-06T03:00:28.173Z,11.10
2019-01-06T03:06:04.824Z,11.07
2019-01-06T03:08:52.377Z,11.37
2019-01-06T03:11:40.006Z,11.30
2019-01-06T03:14:27.665Z,11.03
2019-01-06T03:17:15.267Z,11.10
2019-01-06T03:20:02.859Z,11.47
2019-01-06T03:25:29.190Z,10.93
2019-01-06T03:28:16.800Z,11.73
2019-01-06T03:31:04.407Z,12.37
2019-01-06T03:33:52.384Z,11.80
2019-01-06T03:36:39.951Z,11.20
2019-01-06T03:42:06.489Z,12.60
2019-01-06T03:44:54.181Z,11.10
2019-01-06T03:47:41.766Z,11.43
2019-01-06T03:50:29.423Z,10.97
2019-01-06T03:53:17.030Z,10.87
2019-01-06T03:58:40.250Z,11.50
2019-01-06T04:01:27.784Z,10.70
2019-01-06T04:04:15.469Z,10.90
2019-01-06T04:07:03.050Z,11.03
2019-01-06T04:09:50.738Z,10.63
2019-01-06T04:12:38.303Z,11.43
2019-01-06T04:15:25.842Z,11.67
2019-01-06T04:18:13.470Z,12.20
2019-01-06T04:21:01.336Z,12.07
2019-01-06T04:23:48.919Z,11.37
2019-01-06T04:26:36.585Z,11.83
2019-01-06T04:29:24.247Z,11.67
2019-01-06T04:32:11.956Z,12.07
2019-01-06T04:37:48.667Z,11.87
2019-01-06T04:40:36.238Z,11.80
2019-01-06T04:43:23.986Z,11.40
2019-01-06T04:46:11.805Z,11.13
2019-01-06T04:48:59.413Z,11.50
2019-01-06T04:51:46.997Z,11.83
2019-01-06T04:54:34.613Z,11.40
2019-01-06T04:57:22.274Z,11.47
2019-01-06T05:00:09.882Z,11.57
2019-01-06T05:02:57.793Z,12.10
2019-01-06T05:05:45.438Z,11.87
2019-01-06T05:08:33.088Z,11.40
2019-01-06T05:11:20.797Z,11.20
2019-01-06T05:19:32.879Z,12.00
2019-01-06T05:25:09.557Z,10.90
2019-01-06T05:27:57.244Z,12.07
2019-01-06T05:30:44.834Z,10.90
2019-01-06T05:33:32.471Z,11.50
2019-01-06T05:36:20.058Z,11.60
2019-01-06T05:39:07.662Z,11.50
2019-01-06T05:44:44.376Z,11.60
2019-01-06T05:47:31.983Z,11.03
2019-01-06T05:50:19.613Z,10.90
2019-01-06T05:58:35.205Z,11.10
2019-01-06T06:06:47.439Z,11.37
2019-01-06T06:09:35.037Z,11.07
2019-01-06T06:12:22.625Z,11.53
2019-01-06T06:15:10.192Z,11.47
2019-01-06T06:20:47.172Z,11.27
2019-01-06T06:23:34.756Z,10.80
2019-01-06T06:28:57.916Z,9.93
2019-01-06T06:31:45.530Z,10.20
2019-01-06T06:34:33.138Z,11.77
2019-01-06T06:37:20.834Z,10.30
2019-01-06T06:42:57.433Z,10.87
2019-01-06T06:45:45.014Z,10.13
2019-01-06T06:48:32.676Z,10.30
2019-01-06T06:51:20.267Z,10.07
2019-01-06T06:54:08.255Z,10.53
2019-01-06T06:56:55.780Z,10.67
2019-01-06T07:02:57.203Z,10.80
2019-01-06T07:08:33.829Z,11.00
2019-01-06T07:11:21.419Z,10.80
2019-01-06T07:14:09.067Z,11.17
2019-01-06T07:20:17.350Z,10.43
2019-01-06T07:23:05.025Z,10.73
2019-01-06T07:25:52.693Z,11.03
2019-01-06T07:28:40.312Z,10.37
2019-01-06T07:31:27.910Z,10.97
2019-01-06T07:36:50.562Z,10.97
2019-01-06T07:42:16.969Z,10.63
2019-01-06T07:45:04.540Z,10.40
2019-01-06T07:47:52.086Z,10.40
2019-01-06T07:53:14.879Z,10.40
2019-01-06T07:56:02.543Z,9.80
2019-01-06T07:58:50.144Z,10.53
2019-01-06T08:06:55.546Z,10.20
2019-01-06T08:09:43.209Z,9.00
2019-01-06T08:12:30.852Z,9.63
2019-01-06T08:18:26.846Z,9.90
2019-01-06T08:21:14.417Z,9.50
2019-01-06T08:24:02.036Z,10.07
2019-01-06T08:26:49.606Z,9.90
2019-01-06T08:29:37.433Z,9.60
2019-01-06T08:35:14.169Z,9.03
2019-01-06T08:38:01.804Z,9.50
2019-01-06T08:40:49.393Z,9.27
2019-01-06T08:46:25.999Z,9.80
2019-01-06T08:49:13.538Z,9.43
2019-01-06T08:52:01.150Z,9.50
2019-01-06T08:54:49.057Z,9.53
2019-01-06T08:57:36.798Z,11.20
2019-01-06T09:03:15.130Z,10.30
2019-01-06T09:08:51.825Z,13.67
2019-01-06T09:11:39.482Z,9.87
2019-01-06T09:14:27.146Z,10.10
2019-01-06T09:17:14.676Z,9.57
2019-01-06T09:22:37.651Z,9.23
2019-01-06T09:25:46.098Z,9.80
2019-01-06T09:28:33.809Z,9.87
2019-01-06T09:31:21.378Z,9.80
2019-01-06T09:36:47.701Z,9.60
2019-01-06T09:39:35.367Z,10.30
2019-01-06T09:42:23.024Z,9.17
2019-01-06T09:47:46.053Z,9.10
2019-01-06T09:50:33.656Z,9.00
2019-01-06T09:56:10.428Z,9.30
2019-01-06T09:58:57.992Z,9.10
2019-01-06T10:01:45.612Z,9.07
2019-01-06T10:04:35.195Z,8.87
2019-01-06T10:07:22.476Z,8.93
2019-01-06T10:10:10.321Z,8.93
2019-01-06T10:18:15.797Z,9.67
2019-01-06T10:21:03.394Z,9.40
2019-01-06T10:23:51.020Z,8.80
2019-01-06T10:29:27.679Z,8.80
2019-01-06T10:32:15.361Z,9.17
2019-01-06T10:35:03.082Z,9.30
2019-01-06T10:37:50.589Z,8.73
2019-01-06T10:40:38.231Z,10.20
2019-01-06T10:43:25.854Z,9.67
2019-01-06T10:46:13.756Z,9.37
2019-01-06T10:49:01.324Z,9.33
2019-01-06T10:51:48.921Z,9.50
2019-01-06T10:54:36.513Z,9.07
2019-01-06T10:57:24.158Z,9.07
2019-01-06T11:03:00.910Z,9.20
2019-01-06T11:08:37.520Z,10.03
2019-01-06T11:11:25.026Z,8.80
2019-01-06T11:14:12.627Z,8.90
2019-01-06T11:17:00.291Z,9.07
2019-01-06T11:19:48.035Z,9.10
2019-01-06T11:25:45.587Z,8.93
2019-01-06T11:28:33.235Z,8.73
2019-01-06T11:31:21.298Z,8.90
2019-01-06T11:34:08.919Z,8.10
2019-01-06T11:36:56.692Z,8.47
2019-01-06T11:39:44.370Z,8.80
2019-01-06T11:45:10.898Z,8.30
2019-01-06T11:50:34.147Z,8.60
2019-01-06T11:53:21.911Z,8.17
2019-01-06T11:56:09.612Z,8.50
2019-01-06T11:58:57.425Z,8.10
2019-01-06T12:02:04.896Z,8.37
2019-01-06T12:04:52.516Z,8.30
2019-01-06T12:07:40.263Z,8.57
2019-01-06T12:10:27.907Z,8.43
2019-01-06T12:13:15.489Z,8.60
2019-01-06T12:21:17.632Z,9.10
2019-01-06T12:24:05.258Z,8.87
2019-01-06T12:26:52.847Z,9.37
2019-01-06T12:29:40.375Z,9.53
2019-01-06T12:32:28.150Z,9.03
2019-01-06T12:35:15.719Z,8.90
2019-01-06T12:43:14.312Z,8.80
2019-01-06T12:46:02.140Z,8.73
2019-01-06T12:48:49.819Z,9.03
2019-01-06T12:51:43.533Z,9.07
2019-01-06T12:54:26.793Z,9.60
2019-01-06T12:57:14.320Z,8.57
2019-01-06T13:00:01.987Z,9.63
2019-01-06T13:05:38.717Z,9.57
2019-01-06T13:08:26.297Z,9.33
2019-01-06T13:13:53.128Z,9.40
2019-01-06T13:16:40.696Z,9.30
2019-01-06T13:19:28.339Z,9.30
2019-01-06T13:22:15.993Z,9.10
2019-01-06T13:25:03.667Z,9.30
2019-01-06T13:30:51.116Z,8.97
2019-01-06T13:33:38.721Z,8.40
2019-01-06T13:36:47.179Z,9.40
2019-01-06T13:39:35.017Z,9.40
2019-01-06T13:45:01.549Z,8.70
2019-01-06T13:47:49.151Z,9.47
2019-01-06T13:50:36.754Z,9.47
2019-01-06T13:53:24.401Z,8.93
2019-01-06T13:56:12.075Z,8.80
2019-01-06T14:01:35.079Z,9.00
2019-01-06T14:06:58.315Z,9.13
2019-01-06T14:09:46.052Z,8.90
2019-01-06T14:15:22.858Z,8.87
2019-01-06T14:20:59.538Z,9.23
2019-01-06T14:26:36.118Z,8.63
2019-01-06T14:29:23.742Z,8.60
2019-01-06T14:32:11.375Z,9.33
2019-01-06T14:34:58.947Z,9.80
2019-01-06T14:37:46.659Z,9.13
2019-01-06T14:40:34.300Z,9.27
2019-01-06T14:43:22.006Z,9.17
2019-01-06T14:46:09.598Z,9.40
2019-01-06T14:48:57.254Z,9.20
2019-01-06T14:54:34.015Z,9.13
2019-01-06T14:57:21.765Z,9.77
2019-01-06T15:00:09.493Z,10.13
2019-01-06T15:02:57.104Z,9.60
2019-01-06T15:05:45.124Z,10.00
2019-01-06T15:08:32.711Z,10.60
2019-01-06T15:11:20.312Z,10.20
2019-01-06T15:14:07.904Z,9.70
2019-01-06T15:16:55.507Z,9.90
2019-01-06T15:19:43.135Z,9.93
2019-01-06T15:22:30.916Z,11.10
2019-01-06T15:25:18.405Z,9.73
2019-01-06T15:33:23.752Z,10.17
2019-01-06T15:36:11.400Z,9.73
2019-01-06T15:38:59.320Z,9.77
2019-01-06T15:44:35.999Z,9.77
2019-01-06T15:47:23.664Z,9.37
2019-01-06T15:50:11.297Z,9.90
2019-01-06T15:52:58.867Z,11.57
2019-01-06T15:55:46.415Z,9.80
2019-01-06T15:58:33.994Z,10.80
2019-01-06T16:01:21.609Z,10.03
2019-01-06T16:04:09.265Z,9.70
2019-01-06T16:12:27.880Z,9.70
2019-01-06T16:15:15.444Z,9.80
2019-01-06T16:18:03.102Z,9.93
2019-01-06T16:20:50.743Z,10.80
2019-01-06T16:23:38.470Z,10.20
2019-01-06T16:26:26.036Z,11.03
2019-01-06T16:34:27.975Z,10.87
2019-01-06T16:37:15.555Z,10.23
2019-01-06T16:47:49.791Z,10.70
2019-01-06T16:50:37.358Z,11.03
2019-01-06T16:58:35.571Z,10.90
2019-01-06T17:01:23.219Z,10.80
2019-01-06T17:06:49.833Z,12.00
2019-01-06T17:09:37.414Z,12.07
2019-01-06T17:12:25.328Z,11.50
2019-01-06T17:15:12.935Z,13.13
2019-01-06T17:20:35.678Z,12.40
2019-01-06T17:23:23.311Z,12.47
2019-01-06T17:29:00.090Z,11.00
2019-01-06T17:31:47.753Z,11.33
2019-01-06T17:34:35.380Z,11.60
2019-01-06T17:37:22.985Z,11.20
2019-01-06T17:42:46.009Z,10.73
2019-01-06T17:45:33.533Z,11.60
2019-01-06T17:51:10.149Z,10.93
2019-01-06T17:53:57.779Z,10.40
2019-01-06T17:56:45.533Z,9.93
2019-01-06T17:59:33.012Z,10.87
2019-01-06T18:02:21.168Z,10.50
2019-01-06T18:05:08.823Z,10.27
2019-01-06T18:07:56.407Z,10.50
2019-01-06T18:10:44.067Z,11.17
2019-01-06T18:13:31.717Z,10.10
2019-01-06T18:16:19.344Z,11.37
2019-01-06T18:19:07.028Z,11.87
2019-01-06T18:21:54.638Z,10.70
2019-01-06T18:24:42.153Z,11.00
2019-01-06T18:27:29.753Z,11.30
2019-01-06T18:30:17.433Z,12.00
2019-01-06T18:33:05.116Z,11.00
2019-01-06T18:38:28.308Z,11.67
2019-01-06T18:41:15.915Z,11.43
2019-01-06T18:49:28.035Z,11.50
2019-01-06T18:54:51.044Z,11.40
2019-01-06T18:57:38.676Z,11.43
2019-01-06T19:00:47.455Z,12.50
2019-01-06T19:03:35.074Z,11.77
2019-01-06T19:06:22.772Z,11.80
2019-01-06T19:09:10.450Z,11.97
2019-01-06T19:11:58.067Z,11.50
2019-01-06T19:14:45.718Z,11.47
2019-01-06T19:17:40.672Z,11.73
2019-01-06T19:20:22.936Z,11.57
2019-01-06T19:23:17.892Z,10.90
2019-01-06T19:26:00.055Z,12.30
2019-01-06T19:31:26.828Z,11.90
2019-01-06T19:34:14.628Z,11.40
2019-01-06T19:37:02.227Z,11.90
2019-01-06T19:39:49.825Z,11.57
2019-01-06T19:42:37.426Z,11.60
2019-01-06T19:45:45.930Z,12.30
2019-01-06T19:48:33.527Z,12.27
2019-01-06T19:51:21.216Z,11.90
2019-01-06T19:54:08.746Z,11.50
2019-01-06T19:57:03.971Z,11.87
2019-01-06T20:02:40.624Z,12.37
2019-01-06T20:10:56.274Z,11.80
2019-01-06T20:16:19.718Z,11.90
2019-01-06T20:19:07.368Z,12.60
2019-01-06T20:21:54.939Z,12.10
2019-01-06T20:24:42.566Z,12.73
2019-01-06T20:27:30.216Z,12.70
2019-01-06T20:30:17.928Z,11.90
2019-01-06T20:33:05.500Z,12.50
2019-01-06T20:38:28.568Z,12.50
2019-01-06T20:41:16.256Z,12.60
2019-01-06T20:44:04.051Z,12.67
2019-01-06T20:46:51.621Z,11.87
2019-01-06T20:49:39.237Z,11.77
2019-01-06T20:55:15.979Z,12.43
2019-01-06T20:58:03.816Z,12.63
2019-01-06T21:03:40.658Z,12.80
2019-01-06T21:14:49.992Z,12.90
2019-01-06T21:17:37.588Z,13.30
2019-01-06T21:20:46.057Z,13.47
2019-01-06T21:23:33.803Z,12.77
2019-01-06T21:26:21.491Z,12.40
2019-01-06T21:31:58.250Z,12.93
2019-01-06T21:40:13.745Z,13.50
2019-01-06T21:43:01.461Z,13.70
2019-01-06T21:48:38.087Z,13.30
2019-01-06T21:54:17.853Z,13.47
2019-01-06T21:57:05.446Z,13.17
2019-01-06T21:59:53.270Z,13.10
2019-01-06T22:05:30.150Z,13.90
2019-01-06T22:08:17.745Z,14.10
2019-01-06T22:11:05.352Z,13.80
2019-01-06T22:16:42.026Z,13.33
2019-01-06T22:19:29.699Z,12.97
2019-01-06T22:22:17.376Z,13.53
2019-01-06T22:25:04.970Z,14.00
2019-01-06T22:27:52.734Z,13.40
2019-01-06T22:30:40.401Z,13.77
2019-01-06T22:33:28.051Z,13.77
2019-01-06T22:36:15.572Z,12.87
2019-01-06T22:39:03.287Z,14.23
2019-01-06T22:41:50.771Z,13.80
2019-01-06T22:44:57.656Z,13.47
2019-01-06T22:47:45.236Z,15.10
2019-01-06T22:50:33.113Z,14.13
2019-01-06T22:53:20.718Z,14.30
2019-01-06T22:56:08.390Z,13.70
2019-01-06T22:58:56.258Z,14.00
2019-01-06T23:01:43.970Z,14.07
2019-01-06T23:04:31.613Z,14.70
2019-01-06T23:07:23.731Z,14.40
2019-01-06T23:10:08.632Z,13.53
2019-01-06T23:12:56.176Z,14.20
2019-01-06T23:18:32.915Z,13.93
2019-01-06T23:21:20.595Z,13.00
2019-01-06T23:24:08.297Z,13.27
2019-01-06T23:26:55.879Z,14.83
2019-01-06T23:29:43.740Z,14.20
2019-01-06T23:32:31.358Z,13.27
2019-01-06T23:35:19.090Z,14.27
2019-01-06T23:38:06.640Z,14.23
2019-01-06T23:40:54.338Z,14.10
2019-01-06T23:43:42.003Z,14.23
2019-01-06T23:46:29.889Z,14.53
2019-01-06T23:52:06.574Z,14.67
2019-01-06T23:54:54.241Z,14.43
2019-01-06T23:57:41.971Z,13.70
